Time;durP1;ratioP1;P1;durP2;ratioP2;P2;SDS_P1;SDS_P2;PMS_P1;PMS_P2;Temp;Humidity;BMP_temperature;BMP_pressure;BME280_temperature;BME280_humidity;BME280_pressure;Samples;Min_cycle;Max_cycle;Signal;HPM_P1;HPM_P2
2022/03/05 00:00:16;;;;;;;13.80;6.12;;;2.20;42.40;;;;;;2264645;56;20970;-65
2022/03/05 00:02:42;;;;;;;13.88;5.75;;;2.20;42.30;;;;;;2305729;55;22221;-64
2022/03/05 00:05:10;;;;;;;14.98;6.05;;;2.20;42.20;;;;;;2295275;55;20928;-66
2022/03/05 00:07:36;;;;;;;12.07;5.43;;;2.10;42.20;;;;;;2277965;55;22459;-63
2022/03/05 00:10:03;;;;;;;14.52;5.25;;;2.10;42.30;;;;;;2289997;55;20970;-64
2022/03/05 00:12:30;;;;;;;14.48;6.53;;;2.10;42.40;;;;;;2506165;54;21616;-64
2022/03/05 00:14:56;;;;;;;16.40;6.60;;;2.00;42.30;;;;;;2269927;55;21038;-64
2022/03/05 00:17:23;;;;;;;13.43;6.30;;;2.00;42.40;;;;;;2287409;55;20982;-63
2022/03/05 00:19:50;;;;;;;14.18;5.75;;;2.00;42.40;;;;;;2287184;55;20950;-65
2022/03/05 00:22:17;;;;;;;14.15;6.28;;;2.00;42.50;;;;;;2287386;55;20993;-66
2022/03/05 00:24:45;;;;;;;12.52;5.90;;;1.90;42.40;;;;;;2286410;55;20942;-65
2022/03/05 00:27:11;;;;;;;10.98;5.05;;;1.90;42.50;;;;;;2521520;55;21005;-65
2022/03/05 00:29:38;;;;;;;12.68;5.68;;;1.90;42.50;;;;;;2296933;55;20970;-64
2022/03/05 00:32:05;;;;;;;14.98;5.85;;;1.80;42.40;;;;;;2521045;55;21321;-65
2022/03/05 00:34:31;;;;;;;12.75;5.45;;;1.80;42.50;;;;;;2287098;55;20935;-65
2022/03/05 00:37:05;;;;;;;12.68;5.37;;;1.80;42.50;;;;;;2518521;55;21331;-67
2022/03/05 00:39:32;;;;;;;13.65;5.82;;;1.80;42.60;;;;;;2286590;55;21086;-64
2022/03/05 00:41:59;;;;;;;12.10;5.32;;;1.70;42.50;;;;;;2403254;55;21010;-65
2022/03/05 00:44:25;;;;;;;14.95;6.47;;;1.70;43.20;;;;;;2286313;55;21528;-65
2022/03/05 00:46:52;;;;;;;15.27;5.90;;;1.70;42.60;;;;;;2520795;55;20946;-66
2022/03/05 00:49:18;;;;;;;14.90;6.50;;;1.60;42.60;;;;;;2287366;55;20954;-64
2022/03/05 00:51:52;;;;;;;11.43;4.95;;;1.60;42.70;;;;;;2319194;55;21021;-64
2022/03/05 00:54:19;;;;;;;11.85;5.50;;;1.60;42.80;;;;;;2433752;55;20954;-64
2022/03/05 00:56:46;;;;;;;10.40;4.95;;;1.60;42.80;;;;;;2339803;55;20986;-66
2022/03/05 00:59:15;;;;;;;12.23;5.37;;;1.50;42.80;;;;;;2284345;55;20954;-66
2022/03/05 01:01:42;;;;;;;12.23;6.05;;;1.50;42.90;;;;;;2349628;55;21031;-66
2022/03/05 01:04:09;;;;;;;14.10;6.30;;;1.50;42.90;;;;;;2270585;54;20958;-66
2022/03/05 01:06:53;;;;;;;15.30;6.68;;;1.50;43.00;;;;;;2325470;55;21543;-65
2022/03/05 01:09:20;;;;;;;14.35;6.05;;;1.40;43.10;;;;;;2283694;55;20951;-66
2022/03/05 01:11:46;;;;;;;11.57;5.12;;;1.40;43.60;;;;;;2283714;54;20997;-63
2022/03/05 01:14:12;;;;;;;14.82;6.50;;;1.40;43.10;;;;;;2287640;55;20997;-63
2022/03/05 01:16:39;;;;;;;11.77;5.47;;;1.40;43.10;;;;;;2522603;55;21479;-65
2022/03/05 01:19:06;;;;;;;15.68;7.18;;;1.40;43.10;;;;;;2287229;55;20962;-63
2022/03/05 01:21:32;;;;;;;14.57;6.72;;;1.40;43.20;;;;;;2287082;55;21412;-66
2022/03/05 01:23:59;;;;;;;15.05;6.45;;;1.40;43.30;;;;;;2287293;55;20985;-64
2022/03/05 01:26:29;;;;;;;13.85;5.78;;;1.30;43.20;;;;;;2292769;55;20942;-65
2022/03/05 01:28:56;;;;;;;13.90;6.07;;;1.30;43.30;;;;;;2338938;55;21007;-66
2022/03/05 01:31:23;;;;;;;13.73;6.15;;;1.30;43.30;;;;;;2288722;55;20942;-63
2022/03/05 01:33:49;;;;;;;13.07;5.57;;;1.30;43.30;;;;;;2288736;55;20938;-65
2022/03/05 01:36:15;;;;;;;14.50;6.18;;;1.30;43.40;;;;;;2288688;55;21677;-65
2022/03/05 01:38:42;;;;;;;15.68;6.85;;;1.30;43.40;;;;;;2288572;55;20950;-65
2022/03/05 01:41:08;;;;;;;14.98;7.18;;;1.30;43.50;;;;;;2288421;55;20970;-65
2022/03/05 01:43:35;;;;;;;16.40;7.37;;;1.20;43.60;;;;;;2288549;55;20954;-65
2022/03/05 01:46:02;;;;;;;16.58;6.72;;;1.20;43.70;;;;;;2288554;55;21314;-66
2022/03/05 01:48:29;;;;;;;15.88;7.12;;;1.30;43.80;;;;;;2289246;55;21009;-64
2022/03/05 01:50:58;;;;;;;12.90;5.68;;;1.20;43.70;;;;;;2266486;56;20962;-64
2022/03/05 01:53:24;;;;;;;16.33;6.62;;;1.20;43.80;;;;;;2283023;55;20978;-66
2022/03/05 01:55:50;;;;;;;14.90;7.55;;;1.20;43.80;;;;;;2423345;54;21443;-66
2022/03/05 01:58:35;;;;;;;14.07;6.30;;;1.20;43.80;;;;;;2283632;55;20946;-65
2022/03/05 02:01:14;;;;;;;16.45;6.65;;;1.20;44.00;;;;;;2376560;55;21077;-64
2022/03/05 02:03:40;;;;;;;15.90;7.25;;;1.20;44.00;;;;;;2289215;55;20949;-64
2022/03/05 02:06:06;;;;;;;15.32;7.95;;;1.10;43.80;;;;;;2294955;55;20972;-64
2022/03/05 02:08:33;;;;;;;17.00;7.47;;;1.10;43.80;;;;;;2280679;55;21507;-64
2022/03/05 02:11:00;;;;;;;16.70;7.45;;;1.10;43.90;;;;;;2288985;55;21037;-66
2022/03/05 02:13:36;;;;;;;17.20;7.28;;;1.10;43.90;;;;;;2283145;55;21528;-66
2022/03/05 02:16:03;;;;;;;13.48;6.05;;;1.10;44.00;;;;;;2265485;56;20954;-65
2022/03/05 02:18:29;;;;;;;12.43;5.85;;;1.10;44.50;;;;;;2288001;55;20950;-63
2022/03/05 02:21:26;;;;;;;14.23;6.60;;;1.00;43.90;;;;;;2335977;55;21133;-64
2022/03/05 02:23:53;;;;;;;15.90;6.90;;;1.00;44.00;;;;;;2281355;55;21499;-65
2022/03/05 02:26:32;;;;;;;14.38;6.68;;;1.00;43.90;;;;;;2288097;55;21005;-64
2022/03/05 02:28:58;;;;;;;11.68;5.43;;;1.00;44.10;;;;;;2270383;54;21880;-65
2022/03/05 02:31:25;;;;;;;16.40;7.00;;;0.90;43.90;;;;;;2278108;55;20947;-66
2022/03/05 02:33:52;;;;;;;13.73;6.37;;;0.90;43.90;;;;;;2288168;55;20950;-65
2022/03/05 02:36:22;;;;;;;16.70;7.45;;;0.90;44.00;;;;;;2282588;54;21571;-66
2022/03/05 02:38:49;;;;;;;17.83;8.05;;;0.90;44.10;;;;;;2286878;55;21344;-66
2022/03/05 02:41:18;;;;;;;16.87;6.93;;;0.90;44.10;;;;;;2286630;55;20970;-65
2022/03/05 02:43:45;;;;;;;21.50;7.93;;;0.90;44.20;;;;;;2285968;55;20950;-64
2022/03/05 02:46:11;;;;;;;17.48;8.20;;;0.90;44.20;;;;;;2283499;55;20985;-64
2022/03/05 02:48:38;;;;;;;21.10;9.05;;;0.90;44.30;;;;;;2521856;55;20994;-65
2022/03/05 02:51:04;;;;;;;18.30;8.65;;;0.80;44.30;;;;;;2286953;55;21407;-65
2022/03/05 02:53:36;;;;;;;20.33;9.25;;;0.90;44.50;;;;;;2288913;55;21003;-66
2022/03/05 02:56:03;;;;;;;22.60;9.57;;;0.80;44.70;;;;;;2430910;54;21030;-64
2022/03/05 02:58:29;;;;;;;22.95;10.50;;;0.90;44.80;;;;;;2285849;55;21400;-66
2022/03/05 03:01:05;;;;;;;17.77;8.95;;;0.80;45.40;;;;;;2286870;55;21306;-65
2022/03/05 03:03:31;;;;;;;18.42;8.13;;;0.90;45.10;;;;;;2283017;55;21037;-65
2022/03/05 03:05:57;;;;;;;20.33;9.00;;;0.90;45.10;;;;;;2277262;55;20979;-65
2022/03/05 03:08:23;;;;;;;20.62;8.98;;;0.90;45.10;;;;;;2515724;55;20982;-65
2022/03/05 03:10:50;;;;;;;17.92;8.23;;;0.90;45.10;;;;;;2285683;55;20958;-65
2022/03/05 03:13:16;;;;;;;19.25;9.02;;;0.90;45.10;;;;;;2285567;55;21010;-64
2022/03/05 03:15:43;;;;;;;19.50;8.70;;;0.90;45.00;;;;;;2285947;55;21026;-63
2022/03/05 03:18:09;;;;;;;17.62;7.87;;;0.90;45.00;;;;;;2520420;55;20955;-65
2022/03/05 03:20:35;;;;;;;16.50;8.60;;;0.80;44.90;;;;;;2285923;55;20934;-64
2022/03/05 03:23:02;;;;;;;17.17;8.07;;;0.80;44.90;;;;;;2443164;55;20891;-64
2022/03/05 03:25:28;;;;;;;16.73;8.13;;;0.80;44.80;;;;;;2287126;55;20970;-64
2022/03/05 03:27:56;;;;;;;17.95;8.38;;;0.80;44.80;;;;;;2286621;55;20970;-65
2022/03/05 03:30:22;;;;;;;19.57;9.23;;;0.80;44.90;;;;;;2270113;55;1927284;-65
2022/03/05 03:32:48;;;;;;;18.50;8.15;;;0.80;44.80;;;;;;2286946;55;21760;-65
2022/03/05 03:35:16;;;;;;;19.90;8.73;;;0.80;44.90;;;;;;2286706;55;20965;-64
2022/03/05 03:37:43;;;;;;;18.52;8.63;;;0.70;44.90;;;;;;2353549;55;21006;-64
2022/03/05 03:40:10;;;;;;;17.35;7.65;;;0.70;44.90;;;;;;2298983;55;21019;-66
2022/03/05 03:42:37;;;;;;;17.73;8.20;;;0.70;44.90;;;;;;2289022;55;21129;-64
2022/03/05 03:45:04;;;;;;;20.55;8.50;;;0.70;44.80;;;;;;2286522;55;21388;-66
2022/03/05 03:47:31;;;;;;;19.60;8.10;;;0.60;44.80;;;;;;2286869;55;22093;-65
2022/03/05 03:49:58;;;;;;;18.00;7.78;;;0.60;44.80;;;;;;2286312;55;21093;-64
2022/03/05 03:52:24;;;;;;;18.55;8.75;;;0.60;44.80;;;;;;2287048;55;21789;-66
2022/03/05 03:54:50;;;;;;;19.10;8.15;;;0.60;44.80;;;;;;2286109;55;21546;-64
2022/03/05 04:00:56;;;;;;;16.90;7.15;;;0.50;45.00;;;;;;2286658;55;20954;-65
2022/03/05 04:03:23;;;;;;;16.58;7.30;;;0.40;44.70;;;;;;2398150;55;20965;-65
2022/03/05 04:05:50;;;;;;;19.50;9.55;;;0.40;44.80;;;;;;2282618;55;20977;-65
2022/03/05 04:11:07;;;;;;;19.42;8.50;;;0.40;44.90;;;;;;2286541;54;20978;-65
2022/03/05 04:13:33;;;;;;;16.08;7.70;;;0.30;44.80;;;;;;2265599;55;21002;-67
2022/03/05 04:15:59;;;;;;;17.20;7.53;;;0.30;44.80;;;;;;2282571;54;21849;-65
2022/03/05 04:18:26;;;;;;;17.42;8.05;;;0.30;44.80;;;;;;2284722;54;20970;-65
2022/03/05 04:20:52;;;;;;;18.95;8.13;;;0.20;44.80;;;;;;2285633;55;21009;-64
2022/03/05 04:23:20;;;;;;;21.80;8.88;;;0.20;44.90;;;;;;2285929;55;20986;-65
2022/03/05 04:25:46;;;;;;;17.65;8.13;;;0.20;44.90;;;;;;2285386;55;20961;-64
2022/03/05 04:28:12;;;;;;;23.45;9.45;;;0.20;45.00;;;;;;2314455;55;20970;-64
2022/03/05 04:30:40;;;;;;;17.75;7.93;;;0.10;44.90;;;;;;2285797;55;21014;-63
2022/03/05 04:33:07;;;;;;;18.50;8.07;;;0.10;45.00;;;;;;2285790;55;20966;-63
2022/03/05 04:35:33;;;;;;;18.30;7.70;;;0.10;45.00;;;;;;2286100;55;20977;-64
2022/03/05 04:37:59;;;;;;;18.00;8.30;;;0.00;45.00;;;;;;2286658;55;20945;-63
2022/03/05 04:40:26;;;;;;;16.35;7.10;;;0.00;44.90;;;;;;2294107;55;20966;-65
2022/03/05 04:42:53;;;;;;;18.02;7.93;;;0.00;45.00;;;;;;2286527;55;21018;-65
2022/03/05 04:45:19;;;;;;;19.33;8.68;;;0.00;45.00;;;;;;2286772;55;21074;-63
2022/03/05 04:47:45;;;;;;;19.90;8.45;;;-0.10;45.00;;;;;;2332118;55;20990;-64
2022/03/05 04:50:12;;;;;;;17.65;8.07;;;-0.10;45.10;;;;;;2286806;55;20946;-64
2022/03/05 04:52:38;;;;;;;19.27;8.40;;;-0.10;45.10;;;;;;2286636;55;21073;-65
2022/03/05 04:55:05;;;;;;;19.23;9.05;;;-0.10;45.10;;;;;;2286897;55;20990;-66
2022/03/05 04:57:31;;;;;;;16.85;8.05;;;-0.20;45.00;;;;;;2286573;55;20980;-65
2022/03/05 04:59:58;;;;;;;19.75;8.18;;;-0.20;45.10;;;;;;2287108;55;20974;-64
2022/03/05 05:02:24;;;;;;;17.75;8.48;;;-0.20;45.10;;;;;;2286584;55;21487;-65
2022/03/05 05:04:50;;;;;;;18.45;7.65;;;-0.20;45.10;;;;;;2286170;55;20982;-63
2022/03/05 05:07:17;;;;;;;16.25;7.12;;;-0.20;45.20;;;;;;2286487;55;20974;-63
2022/03/05 05:09:43;;;;;;;16.20;6.97;;;-0.20;45.20;;;;;;2289467;55;21014;-66
2022/03/05 05:12:10;;;;;;;17.00;7.05;;;-0.30;45.10;;;;;;2286531;55;21621;-64
2022/03/05 05:14:36;;;;;;;15.93;7.93;;;-0.30;45.10;;;;;;2287052;55;20957;-64
2022/03/05 05:17:03;;;;;;;17.98;7.53;;;-0.30;45.10;;;;;;2419152;55;21462;-65
2022/03/05 05:19:29;;;;;;;15.85;7.87;;;-0.30;45.10;;;;;;2287471;55;20986;-65
2022/03/05 05:22:03;;;;;;;17.80;7.62;;;-0.30;45.20;;;;;;2356366;55;21053;-64
2022/03/05 05:24:31;;;;;;;21.70;9.10;;;-0.30;45.30;;;;;;2286970;55;21017;-65
2022/03/05 05:26:58;;;;;;;18.80;7.60;;;-0.40;45.30;;;;;;2286808;55;20953;-63
2022/03/05 05:29:24;;;;;;;15.90;6.85;;;-0.40;45.30;;;;;;2286920;55;20969;-64
2022/03/05 05:32:08;;;;;;;17.55;7.40;;;-0.40;45.30;;;;;;2417919;55;20982;-65
2022/03/05 05:34:35;;;;;;;14.85;7.55;;;-0.40;45.40;;;;;;2406190;55;20962;-65
2022/03/05 05:37:02;;;;;;;14.57;6.57;;;-0.40;45.30;;;;;;2285229;55;21475;-65
2022/03/05 05:39:28;;;;;;;16.10;7.00;;;-0.50;45.30;;;;;;2508441;55;21029;-64
2022/03/05 05:41:55;;;;;;;15.25;7.37;;;-0.50;45.30;;;;;;2285479;55;20954;-65
2022/03/05 05:44:21;;;;;;;18.95;7.75;;;-0.50;45.30;;;;;;2287853;55;21494;-66
2022/03/05 05:46:47;;;;;;;15.63;7.15;;;-0.50;45.40;;;;;;2285751;54;21022;-64
2022/03/05 05:49:15;;;;;;;15.27;7.30;;;-0.50;45.50;;;;;;2383716;55;20958;-65
2022/03/05 05:51:42;;;;;;;15.10;7.05;;;-0.60;45.40;;;;;;2472601;55;25392;-63
2022/03/05 05:54:08;;;;;;;15.27;7.70;;;-0.60;45.40;;;;;;2399117;55;21088;-64
2022/03/05 05:56:37;;;;;;;14.15;6.85;;;-0.60;45.50;;;;;;2286411;55;21038;-65
2022/03/05 05:59:06;;;;;;;17.45;7.45;;;-0.60;45.40;;;;;;2286273;55;21088;-64
2022/03/05 06:01:33;;;;;;;16.27;7.25;;;-0.60;45.50;;;;;;2286753;55;21001;-64
2022/03/05 06:03:59;;;;;;;15.30;6.95;;;-0.70;45.40;;;;;;2285516;55;21039;-65
2022/03/05 06:06:31;;;;;;;16.12;7.10;;;-0.60;45.50;;;;;;2286749;55;20918;-63
2022/03/05 06:12:38;;;;;;;15.35;7.40;;;-0.70;45.70;;;;;;2287258;55;20954;-65
2022/03/05 06:15:08;;;;;;;17.42;7.70;;;-0.70;45.50;;;;;;2336518;54;21033;-64
2022/03/05 06:17:35;;;;;;;16.37;7.18;;;-0.80;45.50;;;;;;2269590;55;21011;-65
2022/03/05 06:20:01;;;;;;;17.20;8.80;;;-0.80;45.50;;;;;;2280292;55;21031;-63
2022/03/05 06:22:28;;;;;;;17.70;8.15;;;-0.80;45.60;;;;;;2286361;55;20994;-65
2022/03/05 06:24:55;;;;;;;22.25;7.80;;;-0.80;45.70;;;;;;2448701;55;20969;-66
2022/03/05 06:27:44;;;;;;;19.48;8.77;;;-0.80;45.80;;;;;;2287156;55;21041;-65
2022/03/05 06:30:11;;;;;;;14.50;7.70;;;-0.80;46.00;;;;;;2288024;55;20986;-64
2022/03/05 06:32:38;;;;;;;19.92;9.07;;;-0.80;45.90;;;;;;2285100;55;20961;-64
2022/03/05 06:35:05;;;;;;;20.83;8.77;;;-0.80;45.90;;;;;;2514480;55;20947;-66
2022/03/05 06:37:32;;;;;;;19.58;8.98;;;-0.80;46.00;;;;;;2282547;55;20951;-66
2022/03/05 06:40:44;;;;;;;19.92;9.27;;;-0.80;46.10;;;;;;2322949;55;21642;-65
2022/03/05 06:43:12;;;;;;;21.08;8.20;;;-0.80;46.30;;;;;;2286752;55;21463;-67
2022/03/05 06:45:38;;;;;;;17.62;8.35;;;-0.80;46.10;;;;;;2326756;55;21012;-64
2022/03/05 06:48:05;;;;;;;23.58;8.90;;;-0.80;46.10;;;;;;2286525;55;20950;-64
2022/03/05 06:50:31;;;;;;;16.45;8.15;;;-0.80;46.20;;;;;;2320881;54;20954;-62
2022/03/05 06:52:58;;;;;;;21.27;9.25;;;-0.80;46.20;;;;;;2326916;55;20958;-64
2022/03/05 06:55:25;;;;;;;23.40;9.57;;;-0.70;46.40;;;;;;2398643;55;21053;-64
2022/03/05 06:57:52;;;;;;;26.75;10.50;;;-0.70;46.50;;;;;;2286949;55;20982;-63
2022/03/05 07:00:18;;;;;;;27.27;11.45;;;-0.70;46.70;;;;;;2286756;55;21022;-65
2022/03/05 07:02:45;;;;;;;25.67;12.10;;;-0.60;46.80;;;;;;2288611;55;21059;-63
2022/03/05 07:05:12;;;;;;;28.35;14.07;;;-0.60;46.90;;;;;;2280625;55;20998;-66
2022/03/05 07:07:39;;;;;;;27.58;13.43;;;-0.50;47.00;;;;;;2286944;54;21030;-64
2022/03/05 07:10:06;;;;;;;28.65;13.57;;;-0.50;47.00;;;;;;2377993;55;21007;-64
2022/03/05 07:12:32;;;;;;;26.40;12.93;;;-0.40;47.10;;;;;;2287143;55;20934;-66
2022/03/05 07:15:02;;;;;;;25.15;13.48;;;-0.40;47.10;;;;;;2425299;55;20986;-65
2022/03/05 07:17:29;;;;;;;27.92;12.30;;;-0.30;47.20;;;;;;2287030;55;21009;-64
2022/03/05 07:19:57;;;;;;;26.77;13.55;;;-0.30;47.30;;;;;;2369781;55;20950;-63
2022/03/05 07:22:24;;;;;;;24.55;12.80;;;-0.20;47.40;;;;;;2287205;55;20958;-65
2022/03/05 07:24:50;;;;;;;22.65;11.57;;;-0.20;47.40;;;;;;2407221;55;20985;-65
2022/03/05 07:27:17;;;;;;;26.77;13.20;;;-0.10;47.90;;;;;;2336252;55;21007;-64
2022/03/05 07:29:46;;;;;;;24.37;12.15;;;0.00;47.60;;;;;;2287494;55;21041;-64
2022/03/05 07:32:13;;;;;;;28.75;14.05;;;0.00;47.60;;;;;;2287418;55;20966;-66
2022/03/05 07:34:39;;;;;;;26.85;12.32;;;0.10;47.70;;;;;;2287214;55;21820;-65
2022/03/05 07:37:05;;;;;;;24.00;12.77;;;0.20;47.80;;;;;;2287551;55;20951;-66
2022/03/05 07:39:32;;;;;;;27.15;13.68;;;0.20;47.90;;;;;;2426336;55;21460;-65
2022/03/05 07:41:58;;;;;;;28.30;13.88;;;0.30;48.00;;;;;;2286838;55;21005;-65
2022/03/05 07:44:24;;;;;;;29.23;15.00;;;0.40;48.00;;;;;;2345984;55;21311;-64
2022/03/05 07:46:52;;;;;;;25.35;13.25;;;0.50;48.10;;;;;;2286082;55;21393;-66
2022/03/05 07:49:18;;;;;;;27.35;12.85;;;0.50;48.10;;;;;;2372968;55;21047;-65
2022/03/05 07:51:44;;;;;;;24.00;11.73;;;0.70;48.30;;;;;;2288182;55;21499;-66
2022/03/05 07:54:14;;;;;;;23.58;10.98;;;0.80;48.40;;;;;;2287192;55;20974;-64
2022/03/05 07:56:41;;;;;;;19.45;10.00;;;0.80;48.40;;;;;;2284410;54;20957;-65
2022/03/05 07:59:08;;;;;;;18.62;9.25;;;0.90;48.40;;;;;;2298927;55;21105;-65
2022/03/05 08:01:34;;;;;;;14.40;7.60;;;1.00;48.40;;;;;;2291662;55;21014;-65
2022/03/05 08:04:01;;;;;;;19.20;8.05;;;1.10;48.50;;;;;;2279761;54;21302;-64
2022/03/05 08:06:27;;;;;;;17.77;8.15;;;1.10;48.40;;;;;;2325864;55;21014;-64
2022/03/05 08:08:57;;;;;;;15.18;7.65;;;1.30;48.50;;;;;;2522811;55;20966;-63
2022/03/05 08:11:24;;;;;;;16.12;7.57;;;1.40;48.60;;;;;;2289750;55;21018;-65
2022/03/05 08:13:51;;;;;;;17.70;8.32;;;1.50;48.60;;;;;;2313892;55;20966;-63
2022/03/05 08:16:18;;;;;;;15.73;7.43;;;1.60;48.60;;;;;;2288993;55;20970;-63
2022/03/05 08:18:44;;;;;;;19.52;8.38;;;1.70;48.70;;;;;;2467042;55;20974;-63
2022/03/05 08:21:11;;;;;;;16.23;8.05;;;1.80;48.80;;;;;;2516867;54;20994;-64
2022/03/05 08:23:37;;;;;;;16.62;8.07;;;1.90;48.90;;;;;;2520279;54;21089;-63
2022/03/05 08:26:10;;;;;;;15.98;7.90;;;2.00;48.90;;;;;;2287098;55;20954;-66
2022/03/05 08:28:36;;;;;;;17.92;7.75;;;2.10;48.90;;;;;;2288061;55;20970;-65
2022/03/05 08:31:04;;;;;;;17.67;7.37;;;2.20;49.00;;;;;;2284573;55;20978;-63
2022/03/05 08:33:30;;;;;;;17.85;7.95;;;2.40;49.30;;;;;;2290254;55;21010;-65
2022/03/05 08:35:57;;;;;;;14.95;7.05;;;2.60;50.00;;;;;;2286708;55;20988;-64
2022/03/05 08:38:23;;;;;;;15.93;7.78;;;2.90;51.00;;;;;;2333327;55;20969;-65
2022/03/05 08:40:49;;;;;;;15.38;7.37;;;3.30;52.10;;;;;;2287158;55;20954;-66
2022/03/05 08:43:16;;;;;;;13.82;7.75;;;3.70;52.90;;;;;;2518984;55;21501;-63
2022/03/05 08:45:43;;;;;;;10.52;6.43;;;4.30;53.70;;;;;;2285663;55;21770;-64
2022/03/05 08:48:09;;;;;;;14.35;7.70;;;4.80;53.90;;;;;;2285940;55;20977;-64
2022/03/05 08:50:35;;;;;;;15.48;7.75;;;5.40;54.20;;;;;;2283578;55;21505;-66
2022/03/05 08:53:03;;;;;;;14.30;7.40;;;5.90;54.30;;;;;;2420636;55;21902;-64
2022/03/05 08:55:30;;;;;;;14.07;7.78;;;6.50;54.30;;;;;;2284545;55;20974;-65
2022/03/05 08:57:56;;;;;;;15.38;8.40;;;7.00;54.00;;;;;;2473682;54;21060;-65
2022/03/05 09:00:26;;;;;;;13.57;8.40;;;7.50;53.60;;;;;;2282251;55;20990;-65
2022/03/05 09:02:52;;;;;;;14.95;8.32;;;7.90;52.90;;;;;;2500742;55;20942;-64
2022/03/05 09:05:19;;;;;;;15.45;8.38;;;8.30;52.10;;;;;;2289576;55;21093;-64
2022/03/05 09:07:46;;;;;;;18.83;8.90;;;8.50;51.20;;;;;;2522254;55;21407;-63
2022/03/05 09:10:13;;;;;;;14.10;8.43;;;8.70;50.40;;;;;;2289043;55;20977;-65
2022/03/05 09:12:39;;;;;;;14.02;8.13;;;8.70;49.70;;;;;;2294258;55;20958;-65
2022/03/05 09:15:10;;;;;;;16.27;8.82;;;8.80;49.20;;;;;;2288862;55;21073;-64
2022/03/05 09:17:36;;;;;;;20.98;11.18;;;8.80;48.80;;;;;;2454503;55;20954;-65
2022/03/05 09:20:05;;;;;;;16.77;8.65;;;8.80;48.60;;;;;;2288613;55;21078;-65
2022/03/05 09:22:31;;;;;;;16.15;8.55;;;8.80;48.30;;;;;;2523726;55;21014;-66
2022/03/05 09:24:58;;;;;;;21.23;11.40;;;8.80;48.10;;;;;;2367325;55;21483;-65
2022/03/05 09:27:27;;;;;;;18.12;9.50;;;8.80;48.10;;;;;;2523431;55;20950;-64
2022/03/05 09:29:53;;;;;;;17.15;8.70;;;8.80;48.10;;;;;;2306002;54;21026;-64
2022/03/05 09:32:22;;;;;;;14.50;8.10;;;8.90;48.30;;;;;;2339161;55;21021;-65
2022/03/05 09:34:49;;;;;;;16.55;9.07;;;9.00;48.50;;;;;;2288689;55;20942;-66
2022/03/05 09:37:15;;;;;;;15.20;7.80;;;9.10;48.80;;;;;;2302185;55;21530;-65
2022/03/05 09:39:43;;;;;;;14.10;7.28;;;9.40;49.10;;;;;;2285138;55;20954;-65
2022/03/05 09:42:11;;;;;;;13.10;7.40;;;9.60;49.10;;;;;;2300822;55;20978;-64
2022/03/05 09:44:38;;;;;;;10.98;6.43;;;9.80;49.00;;;;;;2288966;55;20950;-65
2022/03/05 09:47:04;;;;;;;11.60;6.55;;;10.00;47.90;;;;;;2317988;55;20978;-66
2022/03/05 09:49:34;;;;;;;13.38;7.25;;;10.20;47.70;;;;;;2321040;55;20954;-66
2022/03/05 09:52:00;;;;;;;12.98;6.97;;;10.40;47.60;;;;;;2522590;55;20933;-65
2022/03/05 09:54:28;;;;;;;10.38;6.65;;;10.50;47.60;;;;;;2387980;55;21054;-65
2022/03/05 09:56:57;;;;;;;13.57;7.37;;;10.70;47.70;;;;;;2377748;55;21034;-65
2022/03/05 09:59:24;;;;;;;11.65;6.65;;;10.90;47.70;;;;;;2291292;55;21011;-65
2022/03/05 10:01:52;;;;;;;11.57;6.80;;;11.00;47.60;;;;;;2402828;55;20990;-66
2022/03/05 10:04:23;;;;;;;12.82;6.55;;;11.20;47.70;;;;;;2287192;55;20969;-64
2022/03/05 10:07:09;;;;;;;11.52;6.75;;;11.30;47.90;;;;;;2443764;55;20974;-64
2022/03/05 10:09:36;;;;;;;11.00;6.40;;;11.50;47.80;;;;;;2271279;54;20966;-64
2022/03/05 10:12:29;;;;;;;12.05;6.28;;;11.70;48.70;;;;;;2285393;55;22643;-65
2022/03/05 10:15:18;;;;;;;10.23;6.53;;;12.00;48.40;;;;;;2265727;56;21891;-65
2022/03/05 10:18:00;;;;;;;12.93;6.37;;;12.30;47.80;;;;;;2348850;55;21033;-66
2022/03/05 10:20:30;;;;;;;;;;;12.60;48.00;;;;;;2270190;56;21033;-65
2022/03/05 10:23:06;;;;;;;9.85;5.70;;;12.80;47.20;;;;;;2305659;55;20397;-67
2022/03/05 10:25:43;;;;;;;9.32;5.62;;;13.10;48.10;;;;;;2281357;55;20954;-65
2022/03/05 10:28:13;;;;;;;11.55;5.97;;;13.30;48.00;;;;;;2522928;55;21069;-66
2022/03/05 10:30:53;;;;;;;10.02;5.75;;;13.60;48.20;;;;;;2390546;55;21053;-67
2022/03/05 10:33:45;;;;;;;9.93;5.95;;;13.80;48.40;;;;;;2301621;55;21876;-65
2022/03/05 10:36:25;;;;;;;8.38;5.60;;;14.20;48.20;;;;;;2288232;55;21051;-66
2022/03/05 10:39:08;;;;;;;8.68;5.35;;;14.60;48.30;;;;;;2381082;55;21010;-65
2022/03/05 10:41:40;;;;;;;10.20;5.65;;;15.00;48.00;;;;;;2285731;55;21022;-66
2022/03/05 10:44:39;;;;;;;9.20;5.53;;;15.40;48.80;;;;;;2287785;55;21061;-66
2022/03/05 10:47:05;;;;;;;9.20;5.35;;;15.80;47.20;;;;;;2288135;55;20989;-67
2022/03/05 10:49:37;;;;;;;8.25;4.97;;;16.00;47.60;;;;;;2289220;55;21117;-66
2022/03/05 10:52:07;;;;;;;8.85;5.45;;;16.20;46.50;;;;;;2265461;56;20954;-67
2022/03/05 10:54:41;;;;;;;8.40;5.32;;;16.30;46.30;;;;;;2266772;55;20989;-66
2022/03/05 10:57:18;;;;;;;7.80;4.95;;;16.40;45.70;;;;;;2287828;55;21026;-67
2022/03/05 10:59:45;;;;;;;8.88;5.18;;;16.50;45.40;;;;;;2288699;55;20966;-69
2022/03/05 11:02:13;;;;;;;9.10;5.28;;;16.60;44.80;;;;;;2288901;55;20954;-68
2022/03/05 11:04:39;;;;;;;9.60;5.00;;;16.60;43.90;;;;;;2288989;55;21050;-67
2022/03/05 11:07:06;;;;;;;7.78;4.85;;;16.50;43.00;;;;;;2288929;55;20934;-68
2022/03/05 11:09:34;;;;;;;9.07;5.20;;;16.50;42.50;;;;;;2332719;55;20950;-66
2022/03/05 11:12:01;;;;;;;9.35;5.45;;;16.40;42.20;;;;;;2288915;55;21225;-68
2022/03/05 11:14:29;;;;;;;11.07;5.40;;;16.40;42.20;;;;;;2452082;54;21057;-66
2022/03/05 11:16:59;;;;;;;7.55;4.93;;;16.40;42.00;;;;;;2289050;55;20950;-67
2022/03/05 11:19:26;;;;;;;7.75;4.70;;;16.40;41.50;;;;;;2367318;55;21021;-65
2022/03/05 11:21:52;;;;;;;7.05;4.47;;;16.40;41.40;;;;;;2288613;55;20973;-65
2022/03/05 11:24:20;;;;;;;7.75;3.95;;;16.30;40.70;;;;;;2288681;55;20950;-66
2022/03/05 11:26:47;;;;;;;6.72;4.25;;;16.20;40.30;;;;;;2288360;54;21021;-67
2022/03/05 11:29:29;;;;;;;7.78;4.60;;;16.00;40.00;;;;;;2288605;55;21029;-66
2022/03/05 11:32:12;;;;;;;9.35;4.57;;;15.90;40.10;;;;;;2287934;55;20962;-66
2022/03/05 11:34:46;;;;;;;7.12;4.20;;;15.90;39.20;;;;;;2289870;55;20962;-65
2022/03/05 11:37:30;;;;;;;6.78;3.97;;;15.90;39.80;;;;;;2288163;55;21005;-66
2022/03/05 11:39:56;;;;;;;7.70;3.95;;;15.90;39.80;;;;;;2303987;55;20942;-65
2022/03/05 11:42:33;;;;;;;6.85;4.15;;;15.80;39.80;;;;;;2288968;55;21064;-65
2022/03/05 11:45:02;;;;;;;7.87;4.32;;;15.80;39.20;;;;;;2288230;55;21098;-66
2022/03/05 11:47:32;;;;;;;7.07;4.37;;;15.80;39.50;;;;;;2288887;55;21492;-65
2022/03/05 11:50:08;;;;;;;6.45;3.85;;;15.90;39.30;;;;;;2289676;55;20966;-66
2022/03/05 11:53:07;;;;;;;9.20;4.00;;;15.90;39.10;;;;;;2288871;55;20946;-67
2022/03/05 11:55:40;;;;;;;6.68;3.55;;;16.00;38.60;;;;;;2288355;55;21005;-67
2022/03/05 11:58:16;;;;;;;7.15;4.15;;;16.00;39.20;;;;;;2288506;54;21013;-69
2022/03/05 12:00:44;;;;;;;7.28;3.92;;;16.00;38.30;;;;;;2403102;55;20986;-68
2022/03/05 12:03:16;;;;;;;6.37;3.60;;;15.90;38.30;;;;;;2314934;55;20954;-67
2022/03/05 12:05:53;;;;;;;7.75;4.25;;;15.80;37.70;;;;;;2376395;55;20946;-68
2022/03/05 12:09:02;;;;;;;9.23;3.70;;;15.80;37.10;;;;;;2289354;55;21009;-70
2022/03/05 12:11:28;;;;;;;5.43;3.05;;;15.60;36.70;;;;;;2289394;55;21021;-66
2022/03/05 12:14:07;;;;;;;6.93;3.83;;;15.50;37.70;;;;;;2289151;55;21004;-67
2022/03/05 12:16:43;;;;;;;5.95;3.67;;;15.50;37.20;;;;;;2288830;54;20963;-66
2022/03/05 12:19:10;;;;;;;6.25;3.37;;;15.50;38.00;;;;;;2282457;55;21038;-68
2022/03/05 12:25:05;;;;;;;7.53;3.58;;;15.50;37.30;;;;;;2431013;55;20982;-66
2022/03/05 12:27:31;;;;;;;6.25;3.85;;;15.50;38.30;;;;;;2292940;55;21070;-67
2022/03/05 12:29:57;;;;;;;6.22;3.67;;;15.50;38.20;;;;;;2394762;55;20953;-67
2022/03/05 12:32:41;;;;;;;6.82;3.85;;;15.60;38.10;;;;;;2292114;55;21933;-69
2022/03/05 12:35:08;;;;;;;6.12;3.80;;;15.60;37.00;;;;;;2393632;55;21002;-67
2022/03/05 12:37:35;;;;;;;6.65;3.50;;;15.60;37.40;;;;;;2313502;55;21005;-66
2022/03/05 12:40:03;;;;;;;5.80;3.47;;;15.60;37.30;;;;;;2288981;55;20974;-65
2022/03/05 12:42:37;;;;;;;7.68;4.00;;;15.60;37.20;;;;;;2289008;54;21615;-66
2022/03/05 12:45:05;;;;;;;6.93;3.28;;;15.70;36.80;;;;;;2403500;55;20978;-69
2022/03/05 12:47:36;;;;;;;6.97;3.70;;;15.70;37.20;;;;;;2287491;55;20990;-66
2022/03/05 12:50:27;;;;;;;6.22;3.78;;;15.80;37.30;;;;;;2523595;55;20938;-67
2022/03/05 12:52:55;;;;;;;5.93;3.53;;;16.00;36.80;;;;;;2292103;55;21028;-66
2022/03/05 12:55:23;;;;;;;6.72;3.70;;;16.10;37.40;;;;;;2375079;54;20954;-67
2022/03/05 12:57:50;;;;;;;7.50;3.53;;;16.10;37.00;;;;;;2289561;55;21030;-68
2022/03/05 13:00:19;;;;;;;7.72;3.47;;;16.20;36.70;;;;;;2523227;55;21002;-68
2022/03/05 13:02:46;;;;;;;6.35;3.60;;;16.20;36.70;;;;;;2287589;55;20969;-67
2022/03/05 13:05:15;;;;;;;7.10;3.75;;;16.30;36.60;;;;;;2298735;55;21705;-66